Main page
METAR-TAF:

METAR-TAF

Airports :

Oil platform

Norne Fpso, Norway

latitude: 66-01-48N, longitude: 008-04-48E, elevation: 10 m

Current weather observation

The report was made 22 minutes ago, at 23:20 UTC
Wind 19 kt from the North/Northeast
Temperature 11°C
Humidity 100%
Pressure 1011 hPa
Visibility 10 km or more

METAR: ENNE 142320Z AUTO 02019KT 9999 BKN005/// 11/11 Q1011 W///S4

Time: 01:42 (23:42 UTC)

Forecast

The report was made 15 hours and 42 minutes ago, at 08:00 UTC
Forecast valid from 14 at 09 UTC to 14 at 17 UTC
Wind 15 kt from the North
Visibility 10 km or more
Overcast at a height of 500 ft
Probability 30%
from 14 at 09 UTC to 14 at 15 UTC
Broken clouds at a height of 1500 ft
Becoming
from 14 at 15 UTC to 14 at 17 UTC
Scattered clouds at a height of 1000 ft

TAF: ENNE 140800Z 1409/1417 01015KT 9999 OVC005 PROB30 1409/1415 BKN015 BECMG 1415/1417 SCT010

Weather observations and forecasts of more than 4000 airports (METAR and TAF reports).

The available stations are represented by yellow and red dots on the map.

Hover mouse over dot to see the name of the station.

Then click to see weather observations and forecasts.

To change the map : click on the green buttons with a black cross to zoom in, on the green button with a dash to zoom out, or on the green arrows for adjacent maps.


METAR-TAF: